»·PEaware :: N6999J KMRY-KSBP

N6999J :: KMRY-KSBP

FLIGHT INFORMATION

Flight Status: Arrived
Operator: Privately registered:
United States
More flights under this callsign
Pilot: Bryan N. (13862)
Aircraft: PIPER PA-28R-201 ARROW
(P28R)
More flights by this aircraft type
Origin: KMRY Monterey Peninsula
United States
Destination: KSBP San Luis Co Regl
United States
More flights between these airports :: More routes between these airports
Route: +TORO7 SNS V25 PRB MQO
File this flight plan on PilotEdge
Remarks: Simulating LIFR conditions
Altitude:
(Current/Filed)
7,000ft
Speed:
(Current/Filed)
135kts
Departed: 09-Aug-20 08:24 AM
Arrived: 09-Aug-20 09:19 AM
Distance/Time
Traveled:
100nm/0:55
Distance/Time
To Go:
Arrived

Flight Plot

Page will automatically refresh every two minutes.

Flight plan parsing failed; only flown route is shown


Map Options




Map Legend


Flown Route
Filed Route
Departure Airport
Arrival Airport
Navaid (VOR, NDB)
Fix

Horizontal Profiles

Position Reports

Time Latitude Longitude Heading Altitude Ground
Speed
09-Aug-20 07:52 36.588629 -121.854511 343 260ft 0kts
09-Aug-20 07:53 36.588629 -121.854511 343 260ft 0kts
09-Aug-20 07:54 36.588629 -121.854511 343 260ft 0kts
09-Aug-20 07:55 36.588629 -121.854511 343 260ft 0kts
09-Aug-20 07:55 36.588629 -121.854511 343 260ft 0kts
09-Aug-20 07:57 36.588629 -121.854511 343 260ft 0kts
09-Aug-20 07:57 36.588629 -121.854511 343 260ft 0kts
09-Aug-20 07:59 36.588629 -121.854511 343 260ft 0kts
09-Aug-20 07:59 36.588629 -121.854511 343 260ft 0kts
09-Aug-20 08:00 36.588629 -121.854511 343 260ft 0kts
09-Aug-20 08:01 36.588629 -121.854511 343 260ft 0kts
09-Aug-20 08:02 36.588629 -121.854511 343 260ft 0kts
09-Aug-20 08:03 36.588629 -121.854511 343 260ft 0kts
09-Aug-20 08:04 36.588629 -121.854511 343 260ft 0kts
09-Aug-20 08:05 36.588629 -121.854511 343 260ft 0kts
09-Aug-20 08:06 36.588629 -121.854511 343 260ft 0kts
09-Aug-20 08:07 36.588684 -121.854529 349 260ft 0kts
09-Aug-20 08:08 36.588688 -121.854530 349 260ft 0kts
09-Aug-20 08:09 36.588692 -121.854531 349 260ft 0kts
09-Aug-20 08:10 36.588695 -121.854532 349 260ft 0kts
09-Aug-20 08:11 36.588699 -121.854533 349 260ft 0kts
09-Aug-20 08:12 36.588703 -121.854534 349 260ft 0kts
09-Aug-20 08:13 36.588706 -121.854534 349 260ft 0kts
09-Aug-20 08:14 36.588710 -121.854535 349 260ft 0kts
09-Aug-20 08:15 36.588806 -121.854524 30 260ft 5kts
09-Aug-20 08:16 36.589425 -121.854642 292 260ft 12kts
09-Aug-20 08:17 36.590171 -121.856994 51 260ft 0kts
09-Aug-20 08:18 36.590173 -121.856991 51 260ft 0kts
09-Aug-20 08:19 36.590176 -121.856986 51 260ft 0kts
09-Aug-20 08:20 36.590180 -121.856979 51 260ft 0kts
09-Aug-20 08:21 36.590182 -121.856976 51 260ft 0kts
09-Aug-20 08:22 36.590184 -121.856973 51 260ft 0kts
09-Aug-20 08:23 36.589894 -121.852921 113 260ft 72kts
09-Aug-20 08:24 36.583915 -121.820634 74 1207ft 110kts
09-Aug-20 08:25 36.591679 -121.783822 74 2376ft 109kts
09-Aug-20 08:26 36.599365 -121.747365 73 3442ft 106kts
09-Aug-20 08:27 36.606719 -121.711667 75 4402ft 106kts
09-Aug-20 08:28 36.613576 -121.675097 74 5277ft 109kts
09-Aug-20 08:29 36.618662 -121.637896 103 6033ft 115kts
09-Aug-20 08:30 36.610476 -121.600658 110 6830ft 110kts
09-Aug-20 08:31 36.602230 -121.558283 105 7013ft 140kts
09-Aug-20 08:32 36.579631 -121.518354 145 7014ft 149kts
09-Aug-20 08:33 36.546721 -121.486645 140 6999ft 148kts
09-Aug-20 08:34 36.514650 -121.454164 140 7000ft 148kts
09-Aug-20 08:35 36.482717 -121.421659 140 7001ft 148kts
09-Aug-20 08:36 36.450756 -121.389230 140 6995ft 148kts
09-Aug-20 08:37 36.418405 -121.356830 141 6992ft 149kts
09-Aug-20 08:38 36.385880 -121.324939 142 6992ft 149kts
09-Aug-20 08:39 36.353174 -121.293349 141 6990ft 149kts
09-Aug-20 08:40 36.320648 -121.261165 141 6988ft 149kts
09-Aug-20 08:41 36.288420 -121.228723 140 6987ft 149kts
09-Aug-20 08:42 36.255875 -121.196618 141 6986ft 149kts
09-Aug-20 08:43 36.223250 -121.164818 141 6984ft 149kts
09-Aug-20 08:44 36.190740 -121.132776 141 6982ft 149kts
09-Aug-20 08:45 36.158035 -121.100624 141 6981ft 149kts
09-Aug-20 08:46 36.125356 -121.068656 142 6980ft 149kts
09-Aug-20 08:47 36.092529 -121.037244 142 6980ft 149kts
09-Aug-20 08:48 36.059579 -121.005602 141 6981ft 149kts
09-Aug-20 08:49 36.026761 -120.973755 141 6980ft 150kts
09-Aug-20 08:50 35.993915 -120.941719 141 6980ft 150kts
09-Aug-20 08:51 35.961015 -120.909456 141 6980ft 150kts
09-Aug-20 08:52 35.928250 -120.877296 141 6982ft 150kts
09-Aug-20 08:53 35.895332 -120.844929 141 6983ft 151kts
09-Aug-20 08:54 35.862393 -120.812265 141 6985ft 151kts
09-Aug-20 08:55 35.829529 -120.779604 141 6987ft 151kts
09-Aug-20 08:56 35.796753 -120.746801 140 6988ft 151kts
09-Aug-20 08:57 35.763907 -120.713828 140 6989ft 152kts
09-Aug-20 08:58 35.731286 -120.680862 140 6990ft 151kts
09-Aug-20 08:59 35.698271 -120.648529 143 6989ft 152kts
09-Aug-20 09:00 35.660763 -120.631136 190 6993ft 150kts
09-Aug-20 09:01 35.619801 -120.642313 195 6988ft 151kts
09-Aug-20 09:02 35.579105 -120.655583 198 6987ft 150kts
09-Aug-20 09:03 35.539908 -120.669935 195 6987ft 144kts
09-Aug-20 09:04 35.501057 -120.681635 194 6986ft 143kts
09-Aug-20 09:05 35.462697 -120.694686 195 6983ft 141kts
09-Aug-20 09:06 35.430681 -120.720553 238 6663ft 153kts
09-Aug-20 09:07 35.406190 -120.765757 236 5973ft 161kts
09-Aug-20 09:08 35.400274 -120.818173 279 5357ft 159kts
09-Aug-20 09:09 35.404442 -120.872380 261 4566ft 158kts
09-Aug-20 09:10 35.371787 -120.877132 123 4051ft 147kts
09-Aug-20 09:11 35.350008 -120.839368 124 3983ft 119kts
09-Aug-20 09:12 35.331378 -120.806868 123 3369ft 114kts
09-Aug-20 09:13 35.313308 -120.775129 123 2675ft 109kts
09-Aug-20 09:14 35.296390 -120.745012 121 2121ft 104kts
09-Aug-20 09:15 35.279961 -120.715915 124 1545ft 104kts
09-Aug-20 09:16 35.263950 -120.687648 125 1011ft 100kts
09-Aug-20 09:17 35.248236 -120.660067 126 510ft 97kts
09-Aug-20 09:18 35.236226 -120.639042 124 215ft 26kts
09-Aug-20 09:19 35.235832 -120.636740 32 215ft 4kts
09-Aug-20 09:20 35.237166 -120.638800 304 215ft 9kts
09-Aug-20 09:21 35.238015 -120.639374 229 215ft 0kts
09-Aug-20 09:22 35.238015 -120.639374 229 215ft 0kts

Navigation Log

Ident Type
Flight plan parsing failed, navigation log unavailable